Updated29/03/2020 11:48am 
 

Nearby Airport METAR Reports

 

KVSF - Springfield, Vermont, USA
Distance from station: WSW 8mi, 12km
Updated: 03/29/2020 10:54am
Rain, Mist, Overcast
Rain, Mist, Overcast
 Wind from SE
Wind: SE 3 mph , 6 km/h
Temperature: 43°F , 6°C
Dew Point: 39°F , 4°C
Humidity: 87%
Barometer: 30.13 inHg , 1020.3 hPa
Summary: Rain, Mist
Clouds: Overcast
Visibility: 4 miles , 6 km
Cloud details: Few Clouds 1000 ft
Overcast 2000 ft
2020/03/29 14:54 KVSF 291454Z AUTO 14003KT 4SM RA BR FEW010 OVC020 06/04 A3013 RMK AO2 SLP209 P0011 60022 T00610044 58003
KLEB - Lebanon, New Hampshire, USA
Distance from station: N 18mi, 29km
Updated: 03/29/2020 11:00am
Light rain, Mist, Overcast
Light rain, Mist, Overcast
 Wind from varies
Wind: varies 5 mph , 7 km/h
Temperature: 45°F , 7°C
Wind Chill: 42°F , 6°C
Dew Point: 37°F , 3°C
Humidity: 76%
Barometer: 30.12 inHg , 1020 hPa
Summary: Light rain, Mist
Clouds: Overcast
Visibility: 4 miles , 6 km
Cloud details: Mostly cloudy 1700 ft
Overcast 2200 ft
2020/03/29 15:00 KLEB 291500Z VRB04KT 4SM -RA BR BKN017 OVC022 07/03 A3012 RMK AO2 P0001 T00670033
KRUT - Rutland State, Vermont, USA
Distance from station: WNW 31mi, 50km
Updated: 03/29/2020 10:56am
Light rain, Overcast
Light rain, Overcast
 Wind from SE
Wind: SE 23 mph , 37 km/h, Gust: 32 mph , 52 km/h
Temperature: 43°F , 6°C
Wind Chill: 34°F , 1°C
Dew Point: 43°F , 6°C
Humidity: 100%
Barometer: 30.02 inHg , 1016.6 hPa
Summary: Light rain
Clouds: Overcast
Visibility: 10 miles , 16 km
Cloud details: Overcast 4600 ft
2020/03/29 14:56 KRUT 291456Z AUTO 14020G28KT 090V160 10SM -RA OVC046 06/06 A3002 RMK AO2 PK WND 14031/1441 SLP166 P0006 60009 T00610056 58012 $
 
KEEN - Keene/Dillant, New Hampshire, USA
Distance from station: S 34mi, 55km
Updated: 03/29/2020 10:56am
Light rain, Overcast
Light rain, Overcast
 Wind from calm
Wind: Calm
Temperature: 45°F , 7°C
Dew Point: 43°F , 6°C
Humidity: 93%
Barometer: 30.13 inHg , 1020.3 hPa
Summary: Light rain
Clouds: Overcast
Visibility: 7 miles , 11 km
Cloud details: Overcast 1900 ft
2020/03/29 14:56 KEEN 291456Z AUTO 00000KT 7SM -RA OVC019 07/06 A3013 RMK AO2 SLP210 P0003 60014 T00670056 58002 $
K1P1 - Plymouth, New Hampshire, USA
Distance from station: NE 42mi, 67km
Updated: 03/29/2020 11:35am
Light rain, Overcast
Light rain, Overcast
 Wind from ESE
Wind: ESE 7 mph , 11 km/h
Temperature: 39°F , 4°C
Wind Chill: 34°F , 1°C
Dew Point: 37°F , 3°C
Humidity: 93%
Barometer: 30.17 inHg , 1021.7 hPa
Summary: Light rain
Clouds: Overcast
Visibility: 4 miles , 6 km
Cloud details: Partly cloudy 2300 ft
Mostly cloudy 3000 ft
Overcast 4000 ft
2020/03/29 15:35 K1P1 291535Z AUTO 11006KT 4SM -RA SCT023 BKN030 OVC040 04/03 A3017 RMK AO2 P0002 T00420030
KAFN - Jaffrey, New Hampshire, USA
Distance from station: SSE 44mi, 70km
Updated: 03/29/2020 11:30am
Light rain, Mist, Overcast
Light rain, Mist, Overcast
 Wind from calm
Wind: Calm
Temperature: 43°F , 6°C
Dew Point: 41°F , 5°C
Humidity: 93%
Barometer: 30.13 inHg , 1020.3 hPa
Summary: Light rain, Mist
Clouds: Overcast
Visibility: 1 3/4 miles , 2.8 km
Cloud details: Overcast 800 ft
2020/03/29 15:30 KAFN 291530Z AUTO 00000KT 1 3/4SM -RA BR OVC008 06/05 A3013 RMK AO2 CIG 006V012 P0001 T00610050
 
KCON - Concord, New Hampshire, USA
Distance from station: ESE 45mi, 73km
Updated: 03/29/2020 11:15am
Light rain, Mist, Overcast
Light rain, Mist, Overcast
 Wind from ESE
Wind: ESE 6 mph , 9 km/h
Temperature: 43°F , 6°C
Wind Chill: 39°F , 4°C
Dew Point: 37°F , 3°C
Humidity: 81%
Barometer: 30.18 inHg , 1022 hPa
Summary: Light rain, Mist
Clouds: Overcast
Visibility: 4 miles , 6 km
Cloud details: Few Clouds 1500 ft
Partly cloudy 2100 ft
Overcast 3900 ft
2020/03/29 15:15 KCON 291515Z AUTO 12005KT 4SM -RA BR FEW015 SCT021 OVC039 06/03 A3018 RMK AO2 P0003 T00560033
KLCI - Laconia Muni, New Hampshire, USA
Distance from station: ENE 49mi, 80km
Updated: 03/29/2020 11:28am
Light rain, Mist, Overcast
Light rain, Mist, Overcast
 Wind from NNE
Wind: NNE 7 mph , 11 km/h
Temperature: 39°F , 4°C
Wind Chill: 34°F , 1°C
Dew Point: 39°F , 4°C
Humidity: 100%
Barometer: 30.19 inHg , 1022.4 hPa
Summary: Light rain, Mist
Clouds: Overcast
Visibility: 5 miles , 8 km
Cloud details: Mostly cloudy 700 ft
Overcast 1200 ft
2020/03/29 15:28 KLCI 291528Z AUTO 03006KT 5SM -RA BR BKN007 OVC012 04/04 A3019 RMK AO2 P0002
KDDH - Bennington, Vermont, USA
Distance from station: SW 55mi, 89km
Updated: 03/29/2020 10:54am
Light rain, Overcast
Light rain, Overcast
 Wind from SE
Wind: SE 10 mph , 17 km/h
Temperature: 46°F , 8°C
Wind Chill: 41°F , 5°C
Dew Point: 39°F , 4°C
Humidity: 76%
Barometer: 30.04 inHg , 1017.3 hPa
Summary: Light rain
Clouds: Overcast
Visibility: 7 miles , 11 km
Cloud details: Few Clouds 2600 ft
Overcast 3500 ft
2020/03/29 14:54 KDDH 291454Z AUTO 14009KT 7SM -RA FEW026 OVC035 08/04 A3004 RMK AO2 SLP176 P0003 60010 T00830039 53007
 
K6B0 - Middlebury, Vermont, USA
Distance from station: NW 56mi, 90km
Updated: 03/29/2020 11:35am
Light rain, Overcast
Light rain, Overcast
 Wind from S
Wind: S 8 mph , 13 km/h, Gust: 16 mph , 26 km/h
Temperature: 45°F , 7°C
Wind Chill: 41°F , 5°C
Dew Point: 39°F , 4°C
Humidity: 81%
Barometer: 29.99 inHg , 1015.6 hPa
Summary: Light rain
Clouds: Overcast
Visibility: 10 miles , 16 km
Cloud details: Partly cloudy 2700 ft
Overcast 3800 ft
2020/03/29 15:35 K6B0 291535Z AUTO 17007G14KT 10SM -RA SCT027 OVC038 07/04 A2999 RMK AO2 P0002 T00710040
KMHT - Manchester, New Hampshire, USA
Distance from station: ESE 56mi, 90km
Updated: 03/29/2020 10:53am
Light rain, Mist, Overcast
Light rain, Mist, Overcast
 Wind from E
Wind: E 9 mph , 15 km/h
Temperature: 45°F , 7°C
Wind Chill: 40°F , 4°C
Dew Point: 39°F , 4°C
Humidity: 81%
Barometer: 30.17 inHg , 1021.7 hPa
Summary: Light rain, Mist
Clouds: Overcast
Visibility: 3 miles , 5 km
Cloud details: Partly cloudy 1400 ft
Overcast 3300 ft
2020/03/29 14:53 KMHT 291453Z 08008KT 3SM -RA BR SCT014 OVC033 07/04 A3017 RMK AO2 SLP231 P0007 60012 T00670044 57001 $
KORE - Orange, Massachusetts, USA
Distance from station: S 56mi, 90km
Updated: 03/29/2020 11:31am
Rain, Mist, Overcast
Rain, Mist, Overcast
 Wind from SE
Wind: SE 3 mph , 6 km/h
Temperature: 46°F , 8°C
Dew Point: 45°F , 7°C
Humidity: 93%
Barometer: 30.13 inHg , 1020.3 hPa
Summary: Rain, Mist
Clouds: Overcast
Visibility: 2 1/2 miles , 4 km
Cloud details: Overcast 1300 ft
2020/03/29 15:31 KORE 291531Z AUTO 13003KT 2 1/2SM RA BR OVC013 08/07 A3013 RMK AO2 P0003 T00780067
 
KMPV - Montpelier/Barre, Vermont, USA
Distance from station: N 58mi, 93km
Updated: 03/29/2020 10:51am
Light rain, Overcast
Light rain, Overcast
 Wind from SSE
Wind: SSE 13 mph , 20 km/h, Gust: 25 mph , 41 km/h
Temperature: 39°F , 4°C
Wind Chill: 31°F , -1°C
Dew Point: 36°F , 2°C
Humidity: 87%
Barometer: 30.12 inHg , 1020 hPa
Summary: Light rain
Clouds: Overcast
Visibility: 8 miles , 13 km
Cloud details: Overcast 1700 ft
2020/03/29 14:51 KMPV 291451Z AUTO 15011G22KT 8SM -RA OVC017 04/02 A3012 RMK AO2 SLP210 P0004 60008 T00440022 57010
KASH - Nashua/Boire Fld, New Hampshire, USA
Distance from station: SE 59mi, 95km
Updated: 03/29/2020 10:56am
Light rain, Mist, Overcast
Light rain, Mist, Overcast
 Wind from E
Wind: E 10 mph , 17 km/h
Temperature: 43°F , 6°C
Wind Chill: 37°F , 3°C
Dew Point: 43°F , 6°C
Humidity: 100%
Barometer: 30.17 inHg , 1021.7 hPa
Summary: Light rain, Mist
Clouds: Overcast
Visibility: 4 miles , 6 km
Cloud details: Overcast 700 ft
2020/03/29 14:56 KASH 291456Z 09009KT 4SM -RA BR OVC007 06/06 A3017 RMK AO2 CIG 005V010 SLP224 P0001 6//// T00560056 58000
KAQW - North Adams, Massachusetts, USA
Distance from station: SW 62mi, 99km
Updated: 03/29/2020 10:52am
Rain, Overcast
Rain, Overcast
 Wind from E
Wind: E 16 mph , 26 km/h, Gust: 29 mph , 46 km/h
Temperature: 45°F , 7°C
Wind Chill: 38°F , 3°C
Dew Point: 39°F , 4°C
Humidity: 81%
Barometer: 30.08 inHg , 1018.6 hPa
Summary: Rain
Clouds: Overcast
Visibility: 4 miles , 6 km
Cloud details: Partly cloudy 2200 ft
Overcast 4200 ft
2020/03/29 14:52 KAQW 291452Z AUTO 10014G25KT 4SM RA SCT022 OVC042 07/04 A3008 RMK AO2 PK WND 10027/1439 SLP191 P0002 60010 T00720044 53007
 
KGFL - Glens Falls, New York, USA
Distance from station: W 63mi, 101km
Updated: 03/29/2020 11:43am
Light rain, Overcast
Light rain, Overcast
 Wind from ENE
Wind: ENE 6 mph , 9 km/h
Temperature: 45°F , 7°C
Wind Chill: 42°F , 6°C
Dew Point: 43°F , 6°C
Humidity: 93%
Barometer: 29.98 inHg , 1015.2 hPa
Summary: Light rain
Clouds: Overcast
Visibility: 10 miles , 16 km
Cloud details: Few Clouds 400 ft
Partly cloudy 1300 ft
Overcast 3400 ft
2020/03/29 15:43 KGFL 291543Z AUTO 07005KT 10SM -RA FEW004 SCT013 OVC034 07/06 A2998 RMK AO2 RAE06B17 PRESFR P0000 T00670056
KFIT - Fitchburg, Massachusetts, USA
Distance from station: SSE 65mi, 105km
Updated: 03/29/2020 11:41am
Light rain, Mist, Overcast
Light rain, Mist, Overcast
 Wind from varies
Wind: varies 3 mph , 6 km/h
Temperature: 45°F , 7°C
Dew Point: 43°F , 6°C
Humidity: 93%
Barometer: 30.16 inHg , 1021.3 hPa
Summary: Light rain, Mist
Clouds: Overcast
Visibility: 1 1/2 miles , 2.4 km
Cloud details: Overcast 700 ft
2020/03/29 15:41 KFIT 291541Z AUTO VRB03KT 1 1/2SM -RA BR OVC007 07/06 A3016 RMK AO2 RAB11 PRESRR P0003 T00670056
KDAW - Rochester, New Hampshire, USA
Distance from station: E 73mi, 118km
Updated: 03/29/2020 10:51am
Light rain, Mist, Overcast
Light rain, Mist, Overcast
 Wind from E
Wind: E 3 mph , 6 km/h
Temperature: 43°F , 6°C
Dew Point: 39°F , 4°C
Humidity: 87%
Barometer: 30.21 inHg , 1023 hPa
Summary: Light rain, Mist
Clouds: Overcast
Visibility: 4 miles , 6 km
Cloud details: Few Clouds 4300 ft
Mostly cloudy 6000 ft
Overcast 7000 ft
2020/03/29 14:51 KDAW 291451Z AUTO 08003KT 4SM -RA BR FEW043 BKN060 OVC070 06/04 A3021 RMK AO2 SLP231 P0004 60004 T00560039 53002
 
K1V4 - St. Johnsbury, Vermont, USA
Distance from station: NNE 74mi, 119km
Updated: 03/29/2020 10:54am

 
Temperature: 37°F , 3°C
Dew Point: 36°F , 2°C
Humidity: 93%
Barometer: 30.10 inHg , 1019.3 hPa
2020/03/29 14:54 K1V4 291454Z AUTO 03/02 A3010 RMK AO1 SLP201 P0004 60005 T00330017 55005
KLWM - Lawrence, Massachusetts, USA
Distance from station: SE 77mi, 124km
Updated: 03/29/2020 11:22am
Light rain, Mist, Overcast
Light rain, Mist, Overcast
 Wind from E
Wind: E 12 mph , 19 km/h, Gust: 18 mph , 30 km/h
Temperature: 43°F , 6°C
Wind Chill: 37°F , 3°C
Dew Point: 41°F , 5°C
Humidity: 93%
Barometer: 30.19 inHg , 1022.4 hPa
Summary: Light rain, Mist
Clouds: Overcast
Visibility: 4 miles , 6 km
Cloud details: Partly cloudy 900 ft
Overcast 3200 ft
2020/03/29 15:22 KLWM 291522Z 10010G16KT 070V140 4SM -RA BR SCT009 OVC032 06/05 A3019 RMK AO2 P0002 T00610050



Flag Counter
free counter page views since 4/29/2009